createdAt,value
2022-11-16T00:02:13.892Z,100.00
2022-11-16T00:04:40.794Z,100.00
2022-11-16T00:07:07.855Z,100.00
2022-11-16T00:09:37.229Z,100.00
2022-11-16T00:12:12.696Z,100.00
2022-11-16T00:14:39.551Z,100.00
2022-11-16T00:17:07.155Z,100.00
2022-11-16T00:19:34.027Z,100.00
2022-11-16T00:22:02.968Z,100.00
2022-11-16T00:24:29.542Z,100.00
2022-11-16T00:26:56.308Z,100.00
2022-11-16T00:32:08.101Z,100.00
2022-11-16T00:34:36.489Z,100.00
2022-11-16T00:37:05.601Z,100.00
2022-11-16T00:39:32.269Z,100.00
2022-11-16T00:41:58.910Z,100.00
2022-11-16T00:44:25.565Z,100.00
2022-11-16T00:46:52.582Z,100.00
2022-11-16T00:49:19.215Z,100.00
2022-11-16T00:51:46.110Z,100.00
2022-11-16T00:54:12.793Z,100.00
2022-11-16T00:56:39.480Z,100.00
2022-11-16T00:59:06.257Z,100.00
2022-11-16T01:01:33.394Z,100.00
2022-11-16T01:04:00.053Z,100.00
2022-11-16T01:06:28.213Z,100.00
2022-11-16T01:08:54.874Z,100.00
2022-11-16T01:11:40.129Z,100.00
2022-11-16T01:14:08.334Z,100.00
2022-11-16T01:16:35.368Z,100.00
2022-11-16T01:19:03.836Z,100.00
2022-11-16T01:21:30.694Z,100.00
2022-11-16T01:23:57.436Z,100.00
2022-11-16T01:26:27.098Z,100.00
2022-11-16T01:28:53.812Z,100.00
2022-11-16T01:31:23.413Z,100.00
2022-11-16T01:33:59.526Z,100.00
2022-11-16T01:36:26.489Z,100.00
2022-11-16T01:38:53.644Z,100.00
2022-11-16T01:41:23.649Z,100.00
2022-11-16T01:43:52.205Z,100.00
2022-11-16T01:46:18.901Z,100.00
2022-11-16T01:48:48.697Z,99.91
2022-11-16T01:51:15.533Z,99.87
2022-11-16T01:53:42.294Z,98.06
2022-11-16T01:56:09.259Z,96.14
2022-11-16T01:58:37.625Z,95.89
2022-11-16T02:01:04.353Z,93.86
2022-11-16T02:03:32.357Z,92.92
2022-11-16T02:06:37.190Z,92.59
2022-11-16T02:09:53.663Z,92.19
2022-11-16T02:12:33.863Z,90.74
2022-11-16T02:15:27.117Z,90.14
2022-11-16T02:18:24.503Z,89.31
2022-11-16T02:20:59.382Z,88.93
2022-11-16T02:23:57.095Z,89.22
2022-11-16T02:29:22.497Z,88.31
2022-11-16T02:32:29.998Z,88.46
2022-11-16T02:35:22.255Z,88.30
2022-11-16T02:37:57.650Z,88.95
2022-11-16T02:40:27.204Z,88.43
2022-11-16T02:43:00.315Z,88.23
2022-11-16T02:45:30.061Z,88.99
2022-11-16T02:48:02.186Z,88.20
2022-11-16T02:50:30.395Z,89.35
2022-11-16T02:52:57.013Z,89.11
2022-11-16T02:55:24.256Z,89.50
2022-11-16T02:57:59.553Z,88.90
2022-11-16T03:00:58.093Z,89.82
2022-11-16T03:03:44.822Z,91.53
2022-11-16T03:06:27.552Z,92.84
2022-11-16T03:09:01.227Z,91.71
2022-11-16T03:11:49.500Z,91.84
2022-11-16T03:14:21.668Z,92.13
2022-11-16T03:16:51.238Z,91.41
2022-11-16T03:19:22.991Z,90.63
2022-11-16T03:22:04.114Z,91.11
2022-11-16T03:24:36.730Z,92.14
2022-11-16T03:27:37.596Z,93.26
2022-11-16T03:30:14.172Z,92.94
2022-11-16T03:32:51.677Z,92.50
2022-11-16T03:35:59.260Z,92.40
2022-11-16T03:38:27.743Z,91.69
2022-11-16T03:40:57.557Z,92.63
2022-11-16T03:43:25.363Z,93.01
2022-11-16T03:45:52.008Z,92.20
2022-11-16T03:48:18.699Z,91.06
2022-11-16T03:50:45.477Z,91.78
2022-11-16T03:53:12.096Z,92.05
2022-11-16T03:55:38.623Z,92.39
2022-11-16T03:58:05.430Z,90.45
2022-11-16T04:00:32.279Z,90.09
2022-11-16T04:03:01.173Z,88.46
2022-11-16T04:05:47.917Z,88.85
2022-11-16T04:08:37.570Z,86.51
2022-11-16T04:11:22.885Z,85.37
2022-11-16T04:14:09.362Z,84.62
2022-11-16T04:16:55.101Z,83.89
2022-11-16T04:19:40.591Z,84.38
2022-11-16T04:22:33.044Z,83.84
2022-11-16T04:25:11.272Z,83.29
2022-11-16T04:27:57.283Z,83.14
2022-11-16T04:30:23.918Z,83.63
2022-11-16T04:33:09.861Z,83.06
2022-11-16T04:35:55.760Z,82.03
2022-11-16T04:38:29.594Z,82.81
2022-11-16T04:40:58.401Z,81.71
2022-11-16T04:43:24.928Z,81.99
2022-11-16T04:46:12.163Z,81.63
2022-11-16T04:48:38.682Z,82.07
2022-11-16T04:51:05.249Z,81.89
2022-11-16T04:53:31.736Z,81.27
2022-11-16T04:56:01.194Z,81.23
2022-11-16T04:58:27.741Z,80.18
2022-11-16T05:00:54.310Z,80.80
2022-11-16T05:03:22.883Z,81.61
2022-11-16T05:05:52.567Z,81.36
2022-11-16T05:08:21.634Z,81.41
2022-11-16T05:10:53.902Z,81.66
2022-11-16T05:13:24.065Z,80.84
2022-11-16T05:15:50.562Z,79.93
2022-11-16T05:18:17.105Z,79.70
2022-11-16T05:24:00.593Z,80.37
2022-11-16T05:26:36.338Z,81.47
2022-11-16T05:29:03.473Z,81.05
2022-11-16T05:31:30.032Z,81.24
2022-11-16T05:33:56.515Z,80.73
2022-11-16T05:36:23.004Z,81.77
2022-11-16T05:38:55.117Z,81.94
2022-11-16T05:41:22.733Z,82.19
2022-11-16T05:43:49.244Z,83.12
2022-11-16T05:46:15.732Z,81.72
2022-11-16T05:48:42.314Z,84.00
2022-11-16T05:51:08.834Z,83.45
2022-11-16T05:53:37.433Z,82.55
2022-11-16T05:56:04.265Z,83.45
2022-11-16T05:58:31.022Z,83.46
2022-11-16T06:00:58.389Z,83.72
2022-11-16T06:03:24.963Z,84.48
2022-11-16T06:05:58.494Z,84.94
2022-11-16T06:08:25.031Z,85.57
2022-11-16T06:10:51.497Z,85.39
2022-11-16T06:13:18.031Z,84.51
2022-11-16T06:15:50.520Z,83.95
2022-11-16T06:18:17.032Z,85.19
2022-11-16T06:20:43.790Z,85.06
2022-11-16T06:23:12.557Z,84.69
2022-11-16T06:25:40.633Z,83.63
2022-11-16T06:28:08.236Z,84.26
2022-11-16T06:31:14.490Z,83.93
2022-11-16T06:33:41.456Z,83.94
2022-11-16T06:36:09.849Z,83.38
2022-11-16T06:38:36.576Z,84.63
2022-11-16T06:41:21.456Z,83.63
2022-11-16T06:43:48.058Z,83.39
2022-11-16T06:46:14.775Z,83.45
2022-11-16T06:49:02.244Z,83.01
2022-11-16T06:51:52.916Z,83.34
2022-11-16T06:54:19.433Z,83.25
2022-11-16T06:56:48.528Z,83.46
2022-11-16T06:59:15.098Z,82.65
2022-11-16T07:01:43.035Z,83.79
2022-11-16T07:04:12.482Z,83.50
2022-11-16T07:06:39.260Z,83.35
2022-11-16T07:09:11.183Z,83.15
2022-11-16T07:11:37.744Z,83.50
2022-11-16T07:14:04.564Z,83.21
2022-11-16T07:16:37.967Z,83.85
2022-11-16T07:19:07.779Z,83.28
2022-11-16T07:21:34.420Z,83.50
2022-11-16T07:24:01.018Z,83.36
2022-11-16T07:26:28.845Z,83.77
2022-11-16T07:28:55.444Z,83.49
2022-11-16T07:31:21.982Z,84.24
2022-11-16T07:33:48.470Z,83.42
2022-11-16T07:36:15.757Z,83.39
2022-11-16T07:38:42.369Z,84.06
2022-11-16T07:41:17.444Z,83.26
2022-11-16T07:43:51.524Z,84.94
2022-11-16T07:46:45.907Z,84.73
2022-11-16T07:49:11.365Z,85.66
2022-11-16T07:51:38.182Z,85.48
2022-11-16T07:54:14.151Z,84.49
2022-11-16T07:56:44.659Z,83.98
2022-11-16T07:59:16.630Z,85.43
2022-11-16T08:01:49.335Z,85.44
2022-11-16T08:04:17.946Z,85.55
2022-11-16T08:06:45.069Z,85.90
2022-11-16T08:09:12.078Z,86.86
2022-11-16T08:11:38.618Z,87.60
2022-11-16T08:14:05.580Z,87.49
2022-11-16T08:16:34.132Z,87.62
2022-11-16T08:19:04.660Z,86.58
2022-11-16T08:21:32.477Z,86.86
2022-11-16T08:23:59.356Z,88.03
2022-11-16T08:26:26.142Z,87.29
2022-11-16T08:28:53.836Z,86.45
2022-11-16T08:31:24.597Z,86.28
2022-11-16T08:33:53.988Z,86.61
2022-11-16T08:36:22.443Z,86.57
2022-11-16T08:38:51.362Z,86.59
2022-11-16T08:41:18.756Z,85.24
2022-11-16T08:43:47.627Z,85.32
2022-11-16T08:46:15.694Z,85.04
2022-11-16T08:48:42.715Z,84.57
2022-11-16T08:51:18.015Z,84.83
2022-11-16T08:53:52.361Z,85.33
2022-11-16T08:56:20.566Z,85.46
2022-11-16T08:58:51.359Z,86.37
2022-11-16T09:01:23.516Z,87.77
2022-11-16T09:03:54.137Z,87.39
2022-11-16T09:06:25.494Z,88.29
2022-11-16T09:08:57.269Z,87.66
2022-11-16T09:11:26.678Z,86.99
2022-11-16T09:13:56.260Z,86.35
2022-11-16T09:16:24.329Z,87.04
2022-11-16T09:18:53.732Z,87.93
2022-11-16T09:21:37.578Z,88.79
2022-11-16T09:24:04.356Z,88.91
2022-11-16T09:26:30.847Z,88.32
2022-11-16T09:29:05.785Z,86.98
2022-11-16T09:34:22.449Z,87.10
2022-11-16T09:37:04.417Z,88.08
2022-11-16T09:39:32.540Z,88.66
2022-11-16T09:42:20.526Z,89.41
2022-11-16T09:45:25.113Z,89.32
2022-11-16T09:48:02.060Z,89.41
2022-11-16T09:50:41.277Z,88.80
2022-11-16T09:54:02.697Z,88.84
2022-11-16T09:56:39.814Z,89.84
2022-11-16T09:59:18.117Z,89.12
2022-11-16T10:02:01.200Z,88.96
2022-11-16T10:04:58.181Z,88.96
2022-11-16T10:07:41.819Z,89.52
2022-11-16T10:10:16.583Z,89.55
2022-11-16T10:13:00.426Z,89.20
2022-11-16T10:15:42.246Z,89.79
2022-11-16T10:18:33.197Z,88.93
2022-11-16T10:21:00.183Z,90.39
2022-11-16T10:24:11.215Z,89.63
2022-11-16T10:26:54.231Z,89.45
2022-11-16T10:29:48.205Z,89.64
2022-11-16T10:32:35.588Z,89.93
2022-11-16T10:35:06.130Z,89.89
2022-11-16T10:37:39.434Z,91.34
2022-11-16T10:40:26.300Z,91.46
2022-11-16T10:43:06.672Z,91.31
2022-11-16T10:45:40.654Z,90.03
2022-11-16T10:48:46.085Z,90.80
2022-11-16T10:51:12.686Z,89.75
2022-11-16T10:53:41.721Z,90.47
2022-11-16T10:56:28.453Z,90.99
2022-11-16T10:58:59.286Z,92.35
2022-11-16T11:01:44.961Z,91.87
2022-11-16T11:04:32.819Z,90.86
2022-11-16T11:07:02.185Z,89.95
2022-11-16T11:09:28.822Z,90.65
2022-11-16T11:12:34.101Z,91.11
2022-11-16T11:15:27.327Z,90.81
2022-11-16T11:18:16.547Z,91.76
2022-11-16T11:21:15.495Z,90.81
2022-11-16T11:23:59.453Z,90.11
2022-11-16T11:26:40.486Z,89.78
2022-11-16T11:29:37.622Z,88.37
2022-11-16T11:32:07.769Z,87.28
2022-11-16T11:34:40.700Z,86.77
2022-11-16T11:37:18.602Z,86.65
2022-11-16T11:39:45.211Z,86.00
2022-11-16T11:42:17.172Z,86.17
2022-11-16T11:44:52.864Z,87.05
2022-11-16T11:47:58.154Z,86.52
2022-11-16T11:50:53.452Z,85.40
2022-11-16T11:54:11.464Z,86.01
2022-11-16T11:56:37.983Z,86.11
2022-11-16T11:59:04.907Z,85.50
2022-11-16T12:02:02.924Z,85.68
2022-11-16T12:05:13.719Z,84.65
2022-11-16T12:07:51.982Z,85.47
2022-11-16T12:10:39.803Z,85.28
2022-11-16T12:13:33.075Z,85.28
2022-11-16T12:16:29.646Z,86.63
2022-11-16T12:19:37.421Z,85.19
2022-11-16T12:23:04.703Z,84.51
2022-11-16T12:26:20.940Z,84.28
2022-11-16T12:29:26.281Z,84.59
2022-11-16T12:32:10.608Z,85.43
2022-11-16T12:34:49.217Z,84.99
2022-11-16T12:37:35.400Z,85.13
2022-11-16T12:40:14.115Z,84.73
2022-11-16T12:42:52.919Z,85.07
2022-11-16T12:45:52.297Z,85.21
2022-11-16T12:48:40.610Z,84.29
2022-11-16T12:51:43.490Z,84.24
2022-11-16T12:54:38.047Z,84.48
2022-11-16T12:58:03.326Z,85.73
2022-11-16T13:00:39.918Z,86.52
2022-11-16T13:03:38.299Z,85.96
2022-11-16T13:06:20.810Z,86.36
2022-11-16T13:09:38.659Z,85.22
2022-11-16T13:12:20.440Z,86.54
2022-11-16T13:14:56.340Z,86.01
2022-11-16T13:17:28.708Z,86.42
2022-11-16T13:20:14.391Z,85.27
2022-11-16T13:22:56.871Z,84.91
2022-11-16T13:25:28.616Z,84.79
2022-11-16T13:28:33.499Z,84.43
2022-11-16T13:31:13.274Z,84.70
2022-11-16T13:33:50.670Z,84.81
2022-11-16T13:40:39.896Z,83.76
2022-11-16T13:43:09.481Z,84.41
2022-11-16T13:45:57.413Z,83.65
2022-11-16T13:48:38.534Z,83.90
2022-11-16T13:51:09.432Z,84.74
2022-11-16T13:54:43.284Z,83.72
2022-11-16T13:56:50.033Z,83.69
2022-11-16T13:59:16.655Z,84.14
2022-11-16T14:01:58.416Z,84.29
2022-11-16T14:04:40.384Z,84.02
2022-11-16T14:07:52.548Z,84.16
2022-11-16T14:10:51.607Z,84.29
2022-11-16T14:13:30.340Z,84.73
2022-11-16T14:16:15.291Z,84.53
2022-11-16T14:18:43.657Z,84.34
2022-11-16T14:21:19.254Z,84.97
2022-11-16T14:24:10.693Z,84.37
2022-11-16T14:27:01.742Z,85.57
2022-11-16T14:29:41.225Z,85.08
2022-11-16T14:32:47.972Z,84.49
2022-11-16T14:35:36.515Z,86.58
2022-11-16T14:38:06.675Z,86.78
2022-11-16T14:40:42.919Z,86.88
2022-11-16T14:43:17.671Z,85.38
2022-11-16T14:45:53.007Z,85.00
2022-11-16T14:48:22.644Z,85.14
2022-11-16T14:51:04.447Z,85.31
2022-11-16T14:53:32.259Z,85.21
2022-11-16T14:56:11.421Z,85.21
2022-11-16T14:58:38.918Z,84.93
2022-11-16T15:01:08.165Z,86.21
2022-11-16T15:04:02.494Z,85.17
2022-11-16T15:06:30.618Z,85.38
2022-11-16T15:09:00.110Z,85.20
2022-11-16T15:11:58.095Z,84.69
2022-11-16T15:14:38.515Z,85.58
2022-11-16T15:17:10.085Z,84.30
2022-11-16T15:19:38.913Z,84.45
2022-11-16T15:22:17.432Z,84.26
2022-11-16T15:24:44.006Z,84.12
2022-11-16T15:27:25.440Z,85.30
2022-11-16T15:29:52.197Z,84.37
2022-11-16T15:32:18.835Z,84.38
2022-11-16T15:34:52.546Z,84.82
2022-11-16T15:37:30.230Z,85.76
2022-11-16T15:39:58.990Z,85.90
2022-11-16T15:42:27.046Z,86.07
2022-11-16T15:44:53.775Z,85.10
2022-11-16T15:47:24.086Z,85.82
2022-11-16T15:49:53.079Z,85.34
2022-11-16T15:53:06.911Z,85.54
2022-11-16T15:55:36.793Z,85.47
2022-11-16T15:58:07.608Z,85.34
2022-11-16T16:00:37.337Z,84.66
2022-11-16T16:03:25.325Z,86.23
2022-11-16T16:05:52.722Z,85.49
2022-11-16T16:08:26.390Z,85.27
2022-11-16T16:10:59.154Z,84.92
2022-11-16T16:13:55.887Z,85.30
2022-11-16T16:16:39.122Z,85.84
2022-11-16T16:19:31.655Z,84.27
2022-11-16T16:21:59.534Z,83.96
2022-11-16T16:24:46.358Z,84.46
2022-11-16T16:27:18.511Z,85.19
2022-11-16T16:29:46.566Z,84.69
2022-11-16T16:32:23.051Z,84.28
2022-11-16T16:34:50.391Z,84.13
2022-11-16T16:37:16.884Z,84.18
2022-11-16T16:39:45.539Z,84.42
2022-11-16T16:42:15.191Z,84.80
2022-11-16T16:44:45.392Z,84.89
2022-11-16T16:47:12.392Z,84.47
2022-11-16T16:49:39.301Z,84.75
2022-11-16T16:52:07.408Z,83.23
2022-11-16T16:54:34.340Z,83.34
2022-11-16T16:57:02.423Z,83.73
2022-11-16T16:59:30.163Z,82.83
2022-11-16T17:02:00.005Z,82.84
2022-11-16T17:04:54.024Z,82.64
2022-11-16T17:07:23.552Z,81.90
2022-11-16T17:09:50.138Z,82.06
2022-11-16T17:12:19.167Z,82.55
2022-11-16T17:14:51.501Z,83.31
2022-11-16T17:17:19.416Z,82.73
2022-11-16T17:19:46.401Z,82.95
2022-11-16T17:22:13.975Z,83.35
2022-11-16T17:24:40.611Z,82.84
2022-11-16T17:27:08.293Z,83.14
2022-11-16T17:34:58.586Z,83.42
2022-11-16T17:37:27.921Z,83.05
2022-11-16T17:39:55.629Z,83.94
2022-11-16T17:42:22.217Z,84.42
2022-11-16T17:44:49.705Z,82.88
2022-11-16T17:47:17.345Z,82.94
2022-11-16T17:49:44.081Z,82.86
2022-11-16T17:52:10.695Z,83.59
2022-11-16T17:54:37.226Z,84.36
2022-11-16T17:57:04.291Z,83.63
2022-11-16T17:59:30.832Z,85.12
2022-11-16T18:01:57.991Z,84.34
2022-11-16T18:04:24.729Z,84.87
2022-11-16T18:06:53.090Z,83.42
2022-11-16T18:09:19.714Z,83.08
2022-11-16T18:11:46.323Z,84.16
2022-11-16T18:14:12.871Z,83.57
2022-11-16T18:16:43.268Z,84.20
2022-11-16T18:19:14.457Z,83.68
2022-11-16T18:21:42.079Z,84.54
2022-11-16T18:24:12.395Z,82.83
2022-11-16T18:26:40.468Z,84.21
2022-11-16T18:29:09.320Z,83.47
2022-11-16T18:31:35.801Z,83.80
2022-11-16T18:34:19.486Z,82.92
2022-11-16T18:36:49.066Z,83.08
2022-11-16T18:39:23.282Z,83.98
2022-11-16T18:41:55.893Z,83.61
2022-11-16T18:44:26.442Z,84.10
2022-11-16T18:46:59.902Z,84.11
2022-11-16T18:49:33.446Z,83.07
2022-11-16T18:52:03.925Z,83.61
2022-11-16T18:54:32.849Z,83.69
2022-11-16T18:56:59.325Z,83.61
2022-11-16T18:59:26.110Z,83.66
2022-11-16T19:01:54.042Z,83.76
2022-11-16T19:04:20.526Z,83.09
2022-11-16T19:06:51.100Z,83.55
2022-11-16T19:09:24.601Z,83.84
2022-11-16T19:11:59.645Z,83.35
2022-11-16T19:14:26.403Z,84.21
2022-11-16T19:16:57.148Z,83.32
2022-11-16T19:19:27.752Z,82.27
2022-11-16T19:21:56.339Z,83.29
2022-11-16T19:24:23.621Z,82.88
2022-11-16T19:26:51.708Z,82.80
2022-11-16T19:29:23.574Z,83.77
2022-11-16T19:31:56.791Z,84.55
2022-11-16T19:34:33.011Z,84.74
2022-11-16T19:37:18.875Z,83.77
2022-11-16T19:39:45.546Z,84.93
2022-11-16T19:42:40.090Z,84.58
2022-11-16T19:45:26.359Z,85.47
2022-11-16T19:47:56.390Z,84.69
2022-11-16T19:50:24.905Z,84.33
2022-11-16T19:52:52.866Z,83.54
2022-11-16T19:55:19.463Z,83.02
2022-11-16T19:57:46.013Z,84.04
2022-11-16T20:00:15.581Z,83.77
2022-11-16T20:02:43.396Z,82.72
2022-11-16T20:05:16.173Z,83.62
2022-11-16T20:07:44.667Z,83.12
2022-11-16T20:10:11.169Z,84.07
2022-11-16T20:12:37.641Z,84.07
2022-11-16T20:15:05.257Z,83.69
2022-11-16T20:17:31.764Z,83.46
2022-11-16T20:20:08.612Z,84.01
2022-11-16T20:22:35.151Z,83.08
2022-11-16T20:25:01.686Z,82.03
2022-11-16T20:27:51.394Z,82.84
2022-11-16T20:30:27.808Z,82.92
2022-11-16T20:32:58.511Z,82.94
2022-11-16T20:35:28.096Z,83.86
2022-11-16T20:37:54.788Z,83.33
2022-11-16T20:40:25.129Z,83.68
2022-11-16T20:43:00.112Z,83.30
2022-11-16T20:45:30.223Z,82.43
2022-11-16T20:48:02.055Z,82.74
2022-11-16T20:50:31.285Z,82.53
2022-11-16T20:52:57.993Z,81.84
2022-11-16T20:55:27.579Z,82.83
2022-11-16T20:58:22.619Z,81.82
2022-11-16T21:00:49.777Z,82.50
2022-11-16T21:03:17.761Z,82.07
2022-11-16T21:05:49.106Z,81.49
2022-11-16T21:08:16.238Z,82.62
2022-11-16T21:10:46.233Z,81.27
2022-11-16T21:13:33.688Z,80.43
2022-11-16T21:16:04.732Z,80.22
2022-11-16T21:18:35.660Z,80.39
2022-11-16T21:21:06.919Z,79.66
2022-11-16T21:23:35.979Z,80.30
2022-11-16T21:26:14.081Z,80.03
2022-11-16T21:28:42.289Z,80.00
2022-11-16T21:31:11.389Z,79.68
2022-11-16T21:33:38.263Z,80.23
2022-11-16T21:36:06.245Z,80.50
2022-11-16T21:38:36.966Z,80.15
2022-11-16T21:41:04.642Z,80.89
2022-11-16T21:43:33.797Z,80.37
2022-11-16T21:46:02.988Z,81.44
2022-11-16T21:48:32.157Z,80.77
2022-11-16T21:51:17.506Z,81.07
2022-11-16T21:53:44.477Z,80.19
2022-11-16T21:56:15.858Z,81.61
2022-11-16T21:58:42.669Z,80.80
2022-11-16T22:01:11.389Z,80.48
2022-11-16T22:03:39.089Z,81.46
2022-11-16T22:06:25.907Z,81.94
2022-11-16T22:08:52.839Z,81.75
2022-11-16T22:11:22.492Z,80.97
2022-11-16T22:13:49.774Z,81.01
2022-11-16T22:16:21.151Z,80.87
2022-11-16T22:18:47.666Z,80.20
2022-11-16T22:21:14.429Z,81.25
2022-11-16T22:23:41.464Z,80.53
2022-11-16T22:26:10.629Z,80.54
2022-11-16T22:28:37.948Z,80.28
2022-11-16T22:31:06.639Z,79.55
2022-11-16T22:33:35.309Z,80.03
2022-11-16T22:36:02.217Z,79.72
2022-11-16T22:38:28.786Z,80.46
2022-11-16T22:40:56.670Z,80.93
2022-11-16T22:43:28.297Z,79.52
2022-11-16T22:46:03.025Z,80.27
2022-11-16T22:48:34.265Z,79.92
2022-11-16T22:51:07.960Z,80.58
2022-11-16T22:53:35.005Z,80.77
2022-11-16T22:56:08.723Z,81.75
2022-11-16T22:58:39.006Z,80.85
2022-11-16T23:01:09.348Z,80.63
2022-11-16T23:03:36.997Z,80.45
2022-11-16T23:06:05.220Z,80.06
2022-11-16T23:08:32.319Z,80.56
2022-11-16T23:11:25.009Z,81.17
2022-11-16T23:14:11.936Z,80.94
2022-11-16T23:16:39.227Z,80.87
2022-11-16T23:19:25.171Z,80.79
2022-11-16T23:22:21.207Z,81.56
2022-11-16T23:25:06.624Z,81.02
2022-11-16T23:27:40.624Z,80.49
2022-11-16T23:30:12.499Z,80.63
2022-11-16T23:32:40.083Z,80.17
2022-11-16T23:35:06.861Z,80.35
2022-11-16T23:37:33.674Z,80.56
2022-11-16T23:40:00.262Z,80.31
2022-11-16T23:42:45.418Z,80.46
2022-11-16T23:45:11.935Z,79.56
2022-11-16T23:47:38.435Z,80.23
2022-11-16T23:50:05.400Z,81.25
2022-11-16T23:52:32.147Z,81.31
2022-11-16T23:55:00.075Z,81.11
2022-11-16T23:57:26.613Z,80.48
2022-11-16T23:59:54.002Z,80.49
